sensor_id;sensor_type;location;lat;lon;timestamp;temperature;humidity
26541;DHT22;14206;50.202;10.948;2024-02-16T00:00:59;9.20;96.60
26541;DHT22;14206;50.202;10.948;2024-02-16T00:03:27;9.20;96.60
26541;DHT22;14206;50.202;10.948;2024-02-16T00:05:54;9.20;96.60
26541;DHT22;14206;50.202;10.948;2024-02-16T00:08:21;9.20;96.60
26541;DHT22;14206;50.202;10.948;2024-02-16T00:10:48;9.20;96.60
26541;DHT22;14206;50.202;10.948;2024-02-16T00:13:15;9.20;96.60
26541;DHT22;14206;50.202;10.948;2024-02-16T00:15:42;9.20;96.60
26541;DHT22;14206;50.202;10.948;2024-02-16T00:18:09;9.20;96.60
26541;DHT22;14206;50.202;10.948;2024-02-16T00:20:36;9.20;96.60
26541;DHT22;14206;50.202;10.948;2024-02-16T00:23:03;9.30;96.60
26541;DHT22;14206;50.202;10.948;2024-02-16T00:25:30;9.30;96.60
26541;DHT22;14206;50.202;10.948;2024-02-16T00:27:58;9.30;96.60
26541;DHT22;14206;50.202;10.948;2024-02-16T00:30:25;9.40;96.60
26541;DHT22;14206;50.202;10.948;2024-02-16T00:32:54;9.40;96.60
26541;DHT22;14206;50.202;10.948;2024-02-16T00:35:21;9.40;96.60
26541;DHT22;14206;50.202;10.948;2024-02-16T00:37:48;9.50;96.60
26541;DHT22;14206;50.202;10.948;2024-02-16T00:40:15;9.50;96.60
26541;DHT22;14206;50.202;10.948;2024-02-16T00:42:41;9.40;96.60
26541;DHT22;14206;50.202;10.948;2024-02-16T00:45:09;9.40;96.60
26541;DHT22;14206;50.202;10.948;2024-02-16T00:47:36;9.50;96.60
26541;DHT22;14206;50.202;10.948;2024-02-16T00:50:03;9.50;96.60
26541;DHT22;14206;50.202;10.948;2024-02-16T00:52:32;9.50;96.60
26541;DHT22;14206;50.202;10.948;2024-02-16T00:55:02;9.50;96.60
26541;DHT22;14206;50.202;10.948;2024-02-16T00:57:30;9.50;96.60
26541;DHT22;14206;50.202;10.948;2024-02-16T00:59:57;9.50;96.60
26541;DHT22;14206;50.202;10.948;2024-02-16T01:02:24;9.50;96.60
26541;DHT22;14206;50.202;10.948;2024-02-16T01:04:55;9.50;96.60
26541;DHT22;14206;50.202;10.948;2024-02-16T01:07:35;9.50;96.60
26541;DHT22;14206;50.202;10.948;2024-02-16T01:10:02;9.50;96.60
26541;DHT22;14206;50.202;10.948;2024-02-16T01:12:32;9.50;96.60
26541;DHT22;14206;50.202;10.948;2024-02-16T01:14:59;9.50;96.60
26541;DHT22;14206;50.202;10.948;2024-02-16T01:17:26;9.50;96.60
26541;DHT22;14206;50.202;10.948;2024-02-16T01:19:53;9.60;96.60
26541;DHT22;14206;50.202;10.948;2024-02-16T01:22:20;9.50;96.60
26541;DHT22;14206;50.202;10.948;2024-02-16T01:24:47;9.50;96.60
26541;DHT22;14206;50.202;10.948;2024-02-16T01:27:14;9.50;96.60
26541;DHT22;14206;50.202;10.948;2024-02-16T01:29:41;9.50;96.60
26541;DHT22;14206;50.202;10.948;2024-02-16T01:32:08;9.40;96.60
26541;DHT22;14206;50.202;10.948;2024-02-16T01:34:35;9.40;96.60
26541;DHT22;14206;50.202;10.948;2024-02-16T01:37:02;9.40;96.60
26541;DHT22;14206;50.202;10.948;2024-02-16T01:39:30;9.40;96.60
26541;DHT22;14206;50.202;10.948;2024-02-16T01:41:57;9.50;96.60
26541;DHT22;14206;50.202;10.948;2024-02-16T01:44:24;9.50;96.60
26541;DHT22;14206;50.202;10.948;2024-02-16T01:46:51;9.50;96.60
26541;DHT22;14206;50.202;10.948;2024-02-16T01:49:18;9.50;96.60
26541;DHT22;14206;50.202;10.948;2024-02-16T01:51:45;9.40;96.60
26541;DHT22;14206;50.202;10.948;2024-02-16T01:54:13;9.40;96.60
26541;DHT22;14206;50.202;10.948;2024-02-16T01:56:40;9.40;96.60
26541;DHT22;14206;50.202;10.948;2024-02-16T01:59:07;9.50;96.60
26541;DHT22;14206;50.202;10.948;2024-02-16T02:01:34;9.50;96.60
26541;DHT22;14206;50.202;10.948;2024-02-16T02:04:02;9.50;96.60
26541;DHT22;14206;50.202;10.948;2024-02-16T02:06:33;9.50;96.60
26541;DHT22;14206;50.202;10.948;2024-02-16T02:09:07;9.50;96.60
26541;DHT22;14206;50.202;10.948;2024-02-16T02:11:35;9.50;96.60
26541;DHT22;14206;50.202;10.948;2024-02-16T02:14:02;9.50;96.60
26541;DHT22;14206;50.202;10.948;2024-02-16T02:16:29;9.50;96.60
26541;DHT22;14206;50.202;10.948;2024-02-16T02:19:03;9.50;96.60
26541;DHT22;14206;50.202;10.948;2024-02-16T02:21:30;9.50;96.60
26541;DHT22;14206;50.202;10.948;2024-02-16T02:23:57;9.50;96.60
26541;DHT22;14206;50.202;10.948;2024-02-16T02:26:25;9.50;96.60
26541;DHT22;14206;50.202;10.948;2024-02-16T02:28:51;9.50;96.60
26541;DHT22;14206;50.202;10.948;2024-02-16T02:31:18;9.40;96.60
26541;DHT22;14206;50.202;10.948;2024-02-16T02:33:46;9.40;96.60
26541;DHT22;14206;50.202;10.948;2024-02-16T02:36:14;9.40;96.60
26541;DHT22;14206;50.202;10.948;2024-02-16T02:38:41;9.30;96.60
26541;DHT22;14206;50.202;10.948;2024-02-16T02:41:08;9.30;96.60
26541;DHT22;14206;50.202;10.948;2024-02-16T02:43:35;9.30;96.60
26541;DHT22;14206;50.202;10.948;2024-02-16T02:46:01;9.30;96.60
26541;DHT22;14206;50.202;10.948;2024-02-16T02:48:28;9.40;96.60
26541;DHT22;14206;50.202;10.948;2024-02-16T02:50:55;9.40;96.60
26541;DHT22;14206;50.202;10.948;2024-02-16T02:53:23;9.50;96.60
26541;DHT22;14206;50.202;10.948;2024-02-16T02:55:50;9.50;96.60
26541;DHT22;14206;50.202;10.948;2024-02-16T02:58:16;9.50;96.60
26541;DHT22;14206;50.202;10.948;2024-02-16T03:00:44;9.40;96.60
26541;DHT22;14206;50.202;10.948;2024-02-16T03:03:11;9.40;96.60
26541;DHT22;14206;50.202;10.948;2024-02-16T03:05:41;9.50;96.60
26541;DHT22;14206;50.202;10.948;2024-02-16T03:08:08;9.50;96.60
26541;DHT22;14206;50.202;10.948;2024-02-16T03:10:38;9.50;96.60
26541;DHT22;14206;50.202;10.948;2024-02-16T03:13:06;9.50;96.60
26541;DHT22;14206;50.202;10.948;2024-02-16T03:15:36;9.40;96.60
26541;DHT22;14206;50.202;10.948;2024-02-16T03:18:03;9.50;96.60
26541;DHT22;14206;50.202;10.948;2024-02-16T03:20:31;9.50;96.60
26541;DHT22;14206;50.202;10.948;2024-02-16T03:22:58;9.50;96.60
26541;DHT22;14206;50.202;10.948;2024-02-16T03:25:25;9.50;96.60
26541;DHT22;14206;50.202;10.948;2024-02-16T03:27:52;9.50;96.60
26541;DHT22;14206;50.202;10.948;2024-02-16T03:30:22;9.60;96.60
26541;DHT22;14206;50.202;10.948;2024-02-16T03:32:49;9.60;96.60
26541;DHT22;14206;50.202;10.948;2024-02-16T03:35:17;9.60;96.60
26541;DHT22;14206;50.202;10.948;2024-02-16T03:37:45;9.60;96.60
26541;DHT22;14206;50.202;10.948;2024-02-16T03:40:12;9.60;96.60
26541;DHT22;14206;50.202;10.948;2024-02-16T03:42:39;9.70;96.60
26541;DHT22;14206;50.202;10.948;2024-02-16T03:45:07;9.70;96.60
26541;DHT22;14206;50.202;10.948;2024-02-16T03:47:34;9.60;96.60
26541;DHT22;14206;50.202;10.948;2024-02-16T03:50:02;9.60;96.60
26541;DHT22;14206;50.202;10.948;2024-02-16T03:52:29;9.60;96.60
26541;DHT22;14206;50.202;10.948;2024-02-16T03:54:57;9.60;96.60
26541;DHT22;14206;50.202;10.948;2024-02-16T03:57:24;9.60;96.60
26541;DHT22;14206;50.202;10.948;2024-02-16T03:59:51;9.60;96.60
26541;DHT22;14206;50.202;10.948;2024-02-16T04:02:18;9.60;96.60
26541;DHT22;14206;50.202;10.948;2024-02-16T04:04:45;9.60;96.60
26541;DHT22;14206;50.202;10.948;2024-02-16T04:07:12;9.60;96.60
26541;DHT22;14206;50.202;10.948;2024-02-16T04:09:39;9.60;96.60
26541;DHT22;14206;50.202;10.948;2024-02-16T04:12:07;9.60;96.60
26541;DHT22;14206;50.202;10.948;2024-02-16T04:14:33;9.60;96.60
26541;DHT22;14206;50.202;10.948;2024-02-16T04:17:01;9.60;96.60
26541;DHT22;14206;50.202;10.948;2024-02-16T04:19:28;9.60;96.60
26541;DHT22;14206;50.202;10.948;2024-02-16T04:21:55;9.60;96.60
26541;DHT22;14206;50.202;10.948;2024-02-16T04:24:26;9.60;96.60
26541;DHT22;14206;50.202;10.948;2024-02-16T04:26:53;9.60;96.60
26541;DHT22;14206;50.202;10.948;2024-02-16T04:29:20;9.50;96.60
26541;DHT22;14206;50.202;10.948;2024-02-16T04:31:47;9.50;96.60
26541;DHT22;14206;50.202;10.948;2024-02-16T04:34:14;9.40;96.60
26541;DHT22;14206;50.202;10.948;2024-02-16T04:36:41;9.40;96.60
26541;DHT22;14206;50.202;10.948;2024-02-16T04:39:08;9.40;96.60
26541;DHT22;14206;50.202;10.948;2024-02-16T04:41:37;9.40;96.60
26541;DHT22;14206;50.202;10.948;2024-02-16T04:44:04;9.50;96.60
26541;DHT22;14206;50.202;10.948;2024-02-16T04:46:30;9.50;96.60
26541;DHT22;14206;50.202;10.948;2024-02-16T04:48:57;9.50;96.60
26541;DHT22;14206;50.202;10.948;2024-02-16T04:51:24;9.50;96.60
26541;DHT22;14206;50.202;10.948;2024-02-16T04:53:51;9.50;96.60
26541;DHT22;14206;50.202;10.948;2024-02-16T04:56:18;9.50;96.60
26541;DHT22;14206;50.202;10.948;2024-02-16T04:58:45;9.50;96.60
26541;DHT22;14206;50.202;10.948;2024-02-16T05:01:13;9.50;96.60
26541;DHT22;14206;50.202;10.948;2024-02-16T05:03:40;9.40;96.60
26541;DHT22;14206;50.202;10.948;2024-02-16T05:06:10;9.40;96.60
26541;DHT22;14206;50.202;10.948;2024-02-16T05:08:37;9.40;96.60
26541;DHT22;14206;50.202;10.948;2024-02-16T05:11:04;9.40;96.60
26541;DHT22;14206;50.202;10.948;2024-02-16T05:13:31;9.40;96.60
26541;DHT22;14206;50.202;10.948;2024-02-16T05:15:57;9.40;96.60
26541;DHT22;14206;50.202;10.948;2024-02-16T05:18:24;9.40;96.60
26541;DHT22;14206;50.202;10.948;2024-02-16T05:20:52;9.40;96.60
26541;DHT22;14206;50.202;10.948;2024-02-16T05:23:18;9.40;96.60
26541;DHT22;14206;50.202;10.948;2024-02-16T05:25:45;9.40;96.60
26541;DHT22;14206;50.202;10.948;2024-02-16T05:28:12;9.40;96.60
26541;DHT22;14206;50.202;10.948;2024-02-16T05:30:39;9.40;96.60
26541;DHT22;14206;50.202;10.948;2024-02-16T05:33:06;9.40;96.60
26541;DHT22;14206;50.202;10.948;2024-02-16T05:35:33;9.40;96.60
26541;DHT22;14206;50.202;10.948;2024-02-16T05:38:00;9.30;96.60
26541;DHT22;14206;50.202;10.948;2024-02-16T05:40:33;9.30;96.60
26541;DHT22;14206;50.202;10.948;2024-02-16T05:43:12;9.30;96.60
26541;DHT22;14206;50.202;10.948;2024-02-16T05:45:39;9.30;96.60
26541;DHT22;14206;50.202;10.948;2024-02-16T05:48:09;9.30;96.60
26541;DHT22;14206;50.202;10.948;2024-02-16T05:50:37;9.30;96.60
26541;DHT22;14206;50.202;10.948;2024-02-16T05:53:04;9.30;96.60
26541;DHT22;14206;50.202;10.948;2024-02-16T05:55:31;9.40;96.60
26541;DHT22;14206;50.202;10.948;2024-02-16T05:57:58;9.30;96.60
26541;DHT22;14206;50.202;10.948;2024-02-16T06:00:24;9.40;96.60
26541;DHT22;14206;50.202;10.948;2024-02-16T06:02:53;9.40;96.60
26541;DHT22;14206;50.202;10.948;2024-02-16T06:05:20;9.40;96.60
26541;DHT22;14206;50.202;10.948;2024-02-16T06:07:47;9.40;96.60
26541;DHT22;14206;50.202;10.948;2024-02-16T06:10:14;9.50;96.60
26541;DHT22;14206;50.202;10.948;2024-02-16T06:12:40;9.50;96.60
26541;DHT22;14206;50.202;10.948;2024-02-16T06:15:08;9.50;96.60
26541;DHT22;14206;50.202;10.948;2024-02-16T06:17:35;9.60;96.60
26541;DHT22;14206;50.202;10.948;2024-02-16T06:20:05;9.60;96.60
26541;DHT22;14206;50.202;10.948;2024-02-16T06:22:36;9.60;96.60
26541;DHT22;14206;50.202;10.948;2024-02-16T06:25:03;9.70;96.60
26541;DHT22;14206;50.202;10.948;2024-02-16T06:27:30;9.70;96.60
26541;DHT22;14206;50.202;10.948;2024-02-16T06:29:57;9.70;96.60
26541;DHT22;14206;50.202;10.948;2024-02-16T06:32:24;9.70;96.60
26541;DHT22;14206;50.202;10.948;2024-02-16T06:34:52;9.60;96.60
26541;DHT22;14206;50.202;10.948;2024-02-16T06:37:19;9.60;96.60
26541;DHT22;14206;50.202;10.948;2024-02-16T06:39:46;9.60;96.60
26541;DHT22;14206;50.202;10.948;2024-02-16T06:42:13;9.60;96.60
26541;DHT22;14206;50.202;10.948;2024-02-16T06:44:40;9.70;96.60
26541;DHT22;14206;50.202;10.948;2024-02-16T06:47:07;9.70;96.60
26541;DHT22;14206;50.202;10.948;2024-02-16T06:49:34;9.70;96.60
26541;DHT22;14206;50.202;10.948;2024-02-16T06:52:01;9.70;96.60
26541;DHT22;14206;50.202;10.948;2024-02-16T06:54:28;9.70;96.60
26541;DHT22;14206;50.202;10.948;2024-02-16T06:56:55;9.70;96.60
26541;DHT22;14206;50.202;10.948;2024-02-16T06:59:22;9.70;96.60
26541;DHT22;14206;50.202;10.948;2024-02-16T07:01:49;9.70;96.60
26541;DHT22;14206;50.202;10.948;2024-02-16T07:04:16;9.70;96.60
26541;DHT22;14206;50.202;10.948;2024-02-16T07:06:43;9.70;96.60
26541;DHT22;14206;50.202;10.948;2024-02-16T07:09:10;9.70;96.60
26541;DHT22;14206;50.202;10.948;2024-02-16T07:11:37;9.80;96.60
26541;DHT22;14206;50.202;10.948;2024-02-16T07:14:04;9.80;96.60
26541;DHT22;14206;50.202;10.948;2024-02-16T07:16:33;9.80;96.60
26541;DHT22;14206;50.202;10.948;2024-02-16T07:19:00;9.80;96.60
26541;DHT22;14206;50.202;10.948;2024-02-16T07:21:27;9.90;96.60
26541;DHT22;14206;50.202;10.948;2024-02-16T07:23:54;10.00;96.60
26541;DHT22;14206;50.202;10.948;2024-02-16T07:26:21;10.10;96.60
26541;DHT22;14206;50.202;10.948;2024-02-16T07:28:48;10.20;96.60
26541;DHT22;14206;50.202;10.948;2024-02-16T07:31:15;10.40;96.60
26541;DHT22;14206;50.202;10.948;2024-02-16T07:33:42;10.60;96.60
26541;DHT22;14206;50.202;10.948;2024-02-16T07:36:10;10.70;96.60
26541;DHT22;14206;50.202;10.948;2024-02-16T07:38:37;10.90;96.60
26541;DHT22;14206;50.202;10.948;2024-02-16T07:41:04;11.00;96.60
26541;DHT22;14206;50.202;10.948;2024-02-16T07:43:35;11.10;96.60
26541;DHT22;14206;50.202;10.948;2024-02-16T07:46:02;11.10;96.60
26541;DHT22;14206;50.202;10.948;2024-02-16T07:48:30;11.10;96.60
26541;DHT22;14206;50.202;10.948;2024-02-16T07:50:57;11.10;96.60
26541;DHT22;14206;50.202;10.948;2024-02-16T07:53:30;11.20;96.60
26541;DHT22;14206;50.202;10.948;2024-02-16T07:55:57;11.10;96.60
26541;DHT22;14206;50.202;10.948;2024-02-16T07:58:25;11.20;96.60
26541;DHT22;14206;50.202;10.948;2024-02-16T08:00:52;11.30;96.60
26541;DHT22;14206;50.202;10.948;2024-02-16T08:03:21;11.50;96.60
26541;DHT22;14206;50.202;10.948;2024-02-16T08:05:48;11.70;96.60
26541;DHT22;14206;50.202;10.948;2024-02-16T08:08:15;11.90;96.60
26541;DHT22;14206;50.202;10.948;2024-02-16T08:10:42;11.90;96.60
26541;DHT22;14206;50.202;10.948;2024-02-16T08:13:09;12.00;96.60
26541;DHT22;14206;50.202;10.948;2024-02-16T08:15:36;12.10;96.60
26541;DHT22;14206;50.202;10.948;2024-02-16T08:18:03;12.40;96.60
26541;DHT22;14206;50.202;10.948;2024-02-16T08:20:30;12.70;96.60
26541;DHT22;14206;50.202;10.948;2024-02-16T08:22:57;13.00;96.60
26541;DHT22;14206;50.202;10.948;2024-02-16T08:25:25;13.20;96.20
26541;DHT22;14206;50.202;10.948;2024-02-16T08:27:54;13.40;95.30
26541;DHT22;14206;50.202;10.948;2024-02-16T08:30:20;13.50;94.50
26541;DHT22;14206;50.202;10.948;2024-02-16T08:32:47;13.50;94.80
26541;DHT22;14206;50.202;10.948;2024-02-16T08:35:14;13.60;94.60
26541;DHT22;14206;50.202;10.948;2024-02-16T08:37:44;13.70;94.50
26541;DHT22;14206;50.202;10.948;2024-02-16T08:40:14;13.70;93.80
26541;DHT22;14206;50.202;10.948;2024-02-16T08:42:41;13.70;94.20
26541;DHT22;14206;50.202;10.948;2024-02-16T08:45:09;13.80;93.20
26541;DHT22;14206;50.202;10.948;2024-02-16T08:47:36;13.80;93.90
26541;DHT22;14206;50.202;10.948;2024-02-16T08:50:04;13.80;93.40
26541;DHT22;14206;50.202;10.948;2024-02-16T08:52:31;13.80;93.30
26541;DHT22;14206;50.202;10.948;2024-02-16T08:54:58;13.90;93.40
26541;DHT22;14206;50.202;10.948;2024-02-16T08:57:25;13.90;93.10
26541;DHT22;14206;50.202;10.948;2024-02-16T08:59:52;13.80;93.50
26541;DHT22;14206;50.202;10.948;2024-02-16T09:02:25;13.90;92.80
26541;DHT22;14206;50.202;10.948;2024-02-16T09:04:52;13.80;93.40
26541;DHT22;14206;50.202;10.948;2024-02-16T09:07:19;13.90;93.20
26541;DHT22;14206;50.202;10.948;2024-02-16T09:09:46;13.90;93.10
26541;DHT22;14206;50.202;10.948;2024-02-16T09:12:13;13.90;92.90
26541;DHT22;14206;50.202;10.948;2024-02-16T09:14:40;13.80;93.80
26541;DHT22;14206;50.202;10.948;2024-02-16T09:17:07;13.80;94.40
26541;DHT22;14206;50.202;10.948;2024-02-16T09:19:34;13.70;95.00
26541;DHT22;14206;50.202;10.948;2024-02-16T09:22:01;13.80;94.30
26541;DHT22;14206;50.202;10.948;2024-02-16T09:24:33;13.80;93.70
26541;DHT22;14206;50.202;10.948;2024-02-16T09:27:00;13.80;93.90
26541;DHT22;14206;50.202;10.948;2024-02-16T09:29:30;13.80;93.80
26541;DHT22;14206;50.202;10.948;2024-02-16T09:31:57;13.90;93.30
26541;DHT22;14206;50.202;10.948;2024-02-16T09:34:24;14.00;94.40
26541;DHT22;14206;50.202;10.948;2024-02-16T09:36:51;14.20;92.80
26541;DHT22;14206;50.202;10.948;2024-02-16T09:39:18;14.40;92.00
26541;DHT22;14206;50.202;10.948;2024-02-16T09:41:50;14.50;91.70
26541;DHT22;14206;50.202;10.948;2024-02-16T09:44:17;14.60;90.80
26541;DHT22;14206;50.202;10.948;2024-02-16T09:46:46;14.70;90.30
26541;DHT22;14206;50.202;10.948;2024-02-16T09:49:16;14.80;90.30
26541;DHT22;14206;50.202;10.948;2024-02-16T09:51:50;14.90;89.90
26541;DHT22;14206;50.202;10.948;2024-02-16T09:54:17;14.90;89.80
26541;DHT22;14206;50.202;10.948;2024-02-16T09:56:44;14.90;89.90
26541;DHT22;14206;50.202;10.948;2024-02-16T09:59:13;15.00;89.10
26541;DHT22;14206;50.202;10.948;2024-02-16T10:01:39;15.00;89.20
26541;DHT22;14206;50.202;10.948;2024-02-16T10:04:07;15.10;88.70
26541;DHT22;14206;50.202;10.948;2024-02-16T10:06:47;15.30;88.20
26541;DHT22;14206;50.202;10.948;2024-02-16T10:09:25;15.60;87.40
26541;DHT22;14206;50.202;10.948;2024-02-16T10:11:52;15.80;86.20
26541;DHT22;14206;50.202;10.948;2024-02-16T10:14:19;16.00;86.90
26541;DHT22;14206;50.202;10.948;2024-02-16T10:16:47;16.30;84.50
26541;DHT22;14206;50.202;10.948;2024-02-16T10:19:17;16.10;85.20
26541;DHT22;14206;50.202;10.948;2024-02-16T10:21:47;16.00;85.80
26541;DHT22;14206;50.202;10.948;2024-02-16T10:24:14;15.90;84.30
26541;DHT22;14206;50.202;10.948;2024-02-16T10:26:41;15.80;85.10
26541;DHT22;14206;50.202;10.948;2024-02-16T10:29:10;15.70;85.70
26541;DHT22;14206;50.202;10.948;2024-02-16T10:31:38;15.70;85.50
26541;DHT22;14206;50.202;10.948;2024-02-16T10:34:06;15.50;85.80
26541;DHT22;14206;50.202;10.948;2024-02-16T10:36:37;15.40;86.80
26541;DHT22;14206;50.202;10.948;2024-02-16T10:39:06;15.50;85.80
26541;DHT22;14206;50.202;10.948;2024-02-16T10:41:36;15.70;85.30
26541;DHT22;14206;50.202;10.948;2024-02-16T10:44:04;15.90;85.50
26541;DHT22;14206;50.202;10.948;2024-02-16T10:46:33;16.00;85.60
26541;DHT22;14206;50.202;10.948;2024-02-16T10:49:01;16.30;84.60
26541;DHT22;14206;50.202;10.948;2024-02-16T10:51:46;16.60;83.80
26541;DHT22;14206;50.202;10.948;2024-02-16T10:54:19;17.10;83.80
26541;DHT22;14206;50.202;10.948;2024-02-16T10:56:47;17.30;83.60
26541;DHT22;14206;50.202;10.948;2024-02-16T10:59:16;17.40;82.00
26541;DHT22;14206;50.202;10.948;2024-02-16T11:01:44;17.40;82.60
26541;DHT22;14206;50.202;10.948;2024-02-16T11:04:15;17.40;80.80
26541;DHT22;14206;50.202;10.948;2024-02-16T11:06:52;17.40;79.80
26541;DHT22;14206;50.202;10.948;2024-02-16T11:09:35;17.20;80.20
26541;DHT22;14206;50.202;10.948;2024-02-16T11:12:03;17.20;80.60
26541;DHT22;14206;50.202;10.948;2024-02-16T11:14:41;17.20;80.80
26541;DHT22;14206;50.202;10.948;2024-02-16T11:17:13;17.20;81.20
26541;DHT22;14206;50.202;10.948;2024-02-16T11:19:41;17.30;81.90
26541;DHT22;14206;50.202;10.948;2024-02-16T11:22:09;17.20;81.80
26541;DHT22;14206;50.202;10.948;2024-02-16T11:24:43;17.20;82.50
26541;DHT22;14206;50.202;10.948;2024-02-16T11:27:13;17.30;82.20
26541;DHT22;14206;50.202;10.948;2024-02-16T11:29:47;17.30;81.80
26541;DHT22;14206;50.202;10.948;2024-02-16T11:32:15;17.30;81.80
26541;DHT22;14206;50.202;10.948;2024-02-16T11:34:41;17.20;81.70
26541;DHT22;14206;50.202;10.948;2024-02-16T11:37:09;17.10;81.40
26541;DHT22;14206;50.202;10.948;2024-02-16T11:39:36;17.10;81.70
26541;DHT22;14206;50.202;10.948;2024-02-16T11:42:12;17.00;82.50
26541;DHT22;14206;50.202;10.948;2024-02-16T11:44:51;16.90;83.20
26541;DHT22;14206;50.202;10.948;2024-02-16T11:47:25;16.80;82.80
26541;DHT22;14206;50.202;10.948;2024-02-16T11:50:09;16.80;83.30
26541;DHT22;14206;50.202;10.948;2024-02-16T11:52:40;16.70;83.10
26541;DHT22;14206;50.202;10.948;2024-02-16T11:55:11;16.80;83.50
26541;DHT22;14206;50.202;10.948;2024-02-16T11:57:39;16.80;84.20
26541;DHT22;14206;50.202;10.948;2024-02-16T12:00:06;16.80;84.00
26541;DHT22;14206;50.202;10.948;2024-02-16T12:02:36;16.70;83.30
26541;DHT22;14206;50.202;10.948;2024-02-16T12:05:04;16.60;83.20
26541;DHT22;14206;50.202;10.948;2024-02-16T12:07:32;16.50;83.40
26541;DHT22;14206;50.202;10.948;2024-02-16T12:10:03;16.40;84.10
26541;DHT22;14206;50.202;10.948;2024-02-16T12:12:33;16.40;84.30
26541;DHT22;14206;50.202;10.948;2024-02-16T12:15:01;16.40;84.60
26541;DHT22;14206;50.202;10.948;2024-02-16T12:17:29;16.30;84.90
26541;DHT22;14206;50.202;10.948;2024-02-16T12:19:56;16.40;84.40
26541;DHT22;14206;50.202;10.948;2024-02-16T12:22:23;16.50;84.80
26541;DHT22;14206;50.202;10.948;2024-02-16T12:24:51;16.50;84.20
26541;DHT22;14206;50.202;10.948;2024-02-16T12:27:18;16.60;84.30
26541;DHT22;14206;50.202;10.948;2024-02-16T12:29:45;16.60;83.20
26541;DHT22;14206;50.202;10.948;2024-02-16T12:32:13;16.70;82.70
26541;DHT22;14206;50.202;10.948;2024-02-16T12:34:45;16.80;82.90
26541;DHT22;14206;50.202;10.948;2024-02-16T12:37:12;16.90;83.10
26541;DHT22;14206;50.202;10.948;2024-02-16T12:39:39;17.10;82.80
26541;DHT22;14206;50.202;10.948;2024-02-16T12:42:07;17.20;83.40
26541;DHT22;14206;50.202;10.948;2024-02-16T12:44:34;17.40;83.30
26541;DHT22;14206;50.202;10.948;2024-02-16T12:47:01;17.60;81.90
26541;DHT22;14206;50.202;10.948;2024-02-16T12:49:28;17.70;81.90
26541;DHT22;14206;50.202;10.948;2024-02-16T12:51:55;17.70;82.70
26541;DHT22;14206;50.202;10.948;2024-02-16T12:54:22;17.60;81.00
26541;DHT22;14206;50.202;10.948;2024-02-16T12:56:49;17.60;81.80
26541;DHT22;14206;50.202;10.948;2024-02-16T12:59:18;17.50;81.90
26541;DHT22;14206;50.202;10.948;2024-02-16T13:01:45;17.40;81.70
26541;DHT22;14206;50.202;10.948;2024-02-16T13:04:13;17.40;82.20
26541;DHT22;14206;50.202;10.948;2024-02-16T13:06:48;17.30;83.00
26541;DHT22;14206;50.202;10.948;2024-02-16T13:09:15;17.20;81.80
26541;DHT22;14206;50.202;10.948;2024-02-16T13:11:42;17.00;82.10
26541;DHT22;14206;50.202;10.948;2024-02-16T13:14:10;16.90;83.20
26541;DHT22;14206;50.202;10.948;2024-02-16T13:16:36;16.70;83.70
26541;DHT22;14206;50.202;10.948;2024-02-16T13:19:03;16.60;83.50
26541;DHT22;14206;50.202;10.948;2024-02-16T13:21:30;16.60;83.20
26541;DHT22;14206;50.202;10.948;2024-02-16T13:23:58;16.50;83.60
26541;DHT22;14206;50.202;10.948;2024-02-16T13:26:25;16.40;84.10
26541;DHT22;14206;50.202;10.948;2024-02-16T13:28:53;16.20;84.30
26541;DHT22;14206;50.202;10.948;2024-02-16T13:31:21;16.10;83.60
26541;DHT22;14206;50.202;10.948;2024-02-16T13:33:50;16.00;83.90
26541;DHT22;14206;50.202;10.948;2024-02-16T13:36:17;16.00;85.20
26541;DHT22;14206;50.202;10.948;2024-02-16T13:38:44;16.00;84.90
26541;DHT22;14206;50.202;10.948;2024-02-16T13:41:11;15.90;85.20
26541;DHT22;14206;50.202;10.948;2024-02-16T13:43:40;16.00;86.10
26541;DHT22;14206;50.202;10.948;2024-02-16T13:46:07;16.00;85.40
26541;DHT22;14206;50.202;10.948;2024-02-16T13:48:34;16.10;86.10
26541;DHT22;14206;50.202;10.948;2024-02-16T13:51:04;16.10;85.50
26541;DHT22;14206;50.202;10.948;2024-02-16T13:53:34;16.10;86.00
26541;DHT22;14206;50.202;10.948;2024-02-16T13:56:01;16.10;85.80
26541;DHT22;14206;50.202;10.948;2024-02-16T13:58:31;16.10;86.30
26541;DHT22;14206;50.202;10.948;2024-02-16T14:00:58;16.10;86.90
26541;DHT22;14206;50.202;10.948;2024-02-16T14:03:25;16.10;86.90
26541;DHT22;14206;50.202;10.948;2024-02-16T14:05:52;16.10;85.90
26541;DHT22;14206;50.202;10.948;2024-02-16T14:08:19;16.10;85.50
26541;DHT22;14206;50.202;10.948;2024-02-16T14:10:46;16.10;85.30
26541;DHT22;14206;50.202;10.948;2024-02-16T14:13:13;16.20;85.50
26541;DHT22;14206;50.202;10.948;2024-02-16T14:15:40;16.20;85.50
26541;DHT22;14206;50.202;10.948;2024-02-16T14:18:07;16.30;85.30
26541;DHT22;14206;50.202;10.948;2024-02-16T14:20:43;16.40;85.60
26541;DHT22;14206;50.202;10.948;2024-02-16T14:23:10;16.50;84.60
26541;DHT22;14206;50.202;10.948;2024-02-16T14:25:37;16.80;83.70
26541;DHT22;14206;50.202;10.948;2024-02-16T14:28:06;16.90;84.10
26541;DHT22;14206;50.202;10.948;2024-02-16T14:30:36;17.00;84.00
26541;DHT22;14206;50.202;10.948;2024-02-16T14:33:04;17.00;85.50
26541;DHT22;14206;50.202;10.948;2024-02-16T14:35:31;17.10;83.50
26541;DHT22;14206;50.202;10.948;2024-02-16T14:38:03;17.10;83.20
26541;DHT22;14206;50.202;10.948;2024-02-16T14:40:32;17.00;83.20
26541;DHT22;14206;50.202;10.948;2024-02-16T14:43:01;17.00;84.00
26541;DHT22;14206;50.202;10.948;2024-02-16T14:45:28;17.00;84.30
26541;DHT22;14206;50.202;10.948;2024-02-16T14:47:55;17.00;85.00
26541;DHT22;14206;50.202;10.948;2024-02-16T14:50:23;17.00;85.20
26541;DHT22;14206;50.202;10.948;2024-02-16T14:52:50;16.90;84.40
26541;DHT22;14206;50.202;10.948;2024-02-16T14:55:18;16.90;84.10
26541;DHT22;14206;50.202;10.948;2024-02-16T14:57:44;16.90;83.90
26541;DHT22;14206;50.202;10.948;2024-02-16T15:00:12;16.80;84.90
26541;DHT22;14206;50.202;10.948;2024-02-16T15:02:40;16.70;85.00
26541;DHT22;14206;50.202;10.948;2024-02-16T15:05:09;16.60;85.60
26541;DHT22;14206;50.202;10.948;2024-02-16T15:07:36;16.60;86.50
26541;DHT22;14206;50.202;10.948;2024-02-16T15:10:03;16.50;87.10
26541;DHT22;14206;50.202;10.948;2024-02-16T15:12:31;16.50;87.30
26541;DHT22;14206;50.202;10.948;2024-02-16T15:14:58;16.40;87.60
26541;DHT22;14206;50.202;10.948;2024-02-16T15:17:28;16.40;86.80
26541;DHT22;14206;50.202;10.948;2024-02-16T15:19:55;16.30;87.20
26541;DHT22;14206;50.202;10.948;2024-02-16T15:22:22;16.20;87.80
26541;DHT22;14206;50.202;10.948;2024-02-16T15:24:50;16.20;88.20
26541;DHT22;14206;50.202;10.948;2024-02-16T15:27:17;16.10;88.80